Time;durP1;ratioP1;P1;durP2;ratioP2;P2;SDS_P1;SDS_P2;PMS_P1;PMS_P2;Temp;Humidity;BMP_temperature;BMP_pressure;BME280_temperature;BME280_humidity;BME280_pressure;Samples;Min_cycle;Max_cycle;Signal;HPM_P1;HPM_P2
2022/09/14 00:01:21;;;;;;;9.00;3.90;;;24.10;69.90;;;;;;5044783;28;20025;-60
2022/09/14 00:03:47;;;;;;;11.55;4.53;;;24.10;69.90;;;;;;5045849;28;20021;-60
2022/09/14 00:06:14;;;;;;;12.80;4.38;;;24.10;69.90;;;;;;5043926;28;20029;-60
2022/09/14 00:08:40;;;;;;;10.20;4.05;;;24.10;69.90;;;;;;5043684;28;20025;-60
2022/09/14 00:11:07;;;;;;;12.43;4.38;;;24.10;69.90;;;;;;5042028;28;20064;-60
2022/09/14 00:13:33;;;;;;;10.70;4.40;;;24.10;69.80;;;;;;5046287;28;20022;-60
2022/09/14 00:16:07;;;;;;;10.07;4.03;;;24.00;69.70;;;;;;5043328;28;20120;-60
2022/09/14 00:18:33;;;;;;;;;;;24.00;69.70;;;;;;5024963;28;20108;-60
2022/09/14 00:21:04;;;;;;;10.88;4.07;;;24.00;69.90;;;;;;5043124;28;20024;-60
2022/09/14 00:23:29;;;;;;;10.13;4.18;;;24.00;69.80;;;;;;5043647;28;20032;-60
2022/09/14 00:25:55;;;;;;;10.23;4.13;;;24.00;69.70;;;;;;5043703;28;20032;-60
2022/09/14 00:28:20;;;;;;;9.55;4.65;;;24.00;69.70;;;;;;5042806;28;20025;-60
2022/09/14 00:30:46;;;;;;;9.45;4.25;;;24.00;69.80;;;;;;5043397;28;20068;-60
2022/09/14 00:33:12;;;;;;;9.65;3.95;;;24.00;69.80;;;;;;5043895;28;20032;-60
2022/09/14 00:35:38;;;;;;;10.05;4.15;;;24.00;69.70;;;;;;5040914;28;20044;-60
2022/09/14 00:38:05;;;;;;;10.43;4.25;;;24.00;69.80;;;;;;5025593;28;20496;-60
2022/09/14 00:40:30;;;;;;;10.80;4.50;;;24.00;69.70;;;;;;5044431;28;20631;-60
2022/09/14 00:42:56;;;;;;;11.45;4.63;;;24.00;69.70;;;;;;5043832;28;20017;-60
2022/09/14 00:45:23;;;;;;;9.10;3.88;;;24.00;69.80;;;;;;5042559;28;20046;-60
2022/09/14 00:47:49;;;;;;;10.35;4.30;;;24.00;69.80;;;;;;5026416;28;20013;-60
2022/09/14 00:50:15;;;;;;;9.95;4.35;;;24.00;69.80;;;;;;5025142;28;20036;-60
2022/09/14 00:52:42;;;;;;;10.60;4.25;;;24.00;69.80;;;;;;5020737;28;20030;-60
2022/09/14 00:55:13;;;;;;;9.23;4.22;;;24.00;69.80;;;;;;5023666;28;20033;-60
2022/09/14 00:57:49;;;;;;;10.70;4.35;;;24.00;69.80;;;;;;5026472;28;20049;-60
2022/09/14 01:00:18;;;;;;;11.18;4.25;;;24.00;69.90;;;;;;5042094;28;20017;-60
2022/09/14 01:02:44;;;;;;;8.93;4.03;;;24.00;69.90;;;;;;5040470;28;20306;-60
2022/09/14 01:05:10;;;;;;;11.95;4.55;;;24.00;69.90;;;;;;5042480;28;20505;-60
2022/09/14 01:07:53;;;;;;;12.10;4.57;;;24.00;69.90;;;;;;5027051;28;20036;-60
2022/09/14 01:10:44;;;;;;;9.63;4.40;;;24.00;69.90;;;;;;5027473;28;20036;-60
2022/09/14 01:13:16;;;;;;;12.93;4.40;;;24.00;69.90;;;;;;5026721;28;20117;-60
2022/09/14 01:16:00;;;;;;;13.38;4.70;;;24.00;70.00;;;;;;5045049;28;20118;-60
2022/09/14 01:18:34;;;;;;;11.60;4.05;;;24.00;70.00;;;;;;5044776;28;20036;-60
2022/09/14 01:21:15;;;;;;;10.70;4.38;;;24.00;70.00;;;;;;5026051;28;20494;-60
2022/09/14 01:24:06;;;;;;;12.13;4.47;;;24.00;70.00;;;;;;5024597;28;20112;-60
2022/09/14 01:26:37;;;;;;;12.00;4.47;;;23.90;70.00;;;;;;5025143;28;20024;-60
2022/09/14 01:29:12;;;;;;;14.43;4.60;;;23.90;70.00;;;;;;5042474;28;20541;-60
2022/09/14 01:31:47;;;;;;;;;;;23.90;70.00;;;;;;5029287;28;20576;-60
2022/09/14 01:34:21;;;;;;;11.57;4.22;;;23.90;70.00;;;;;;5041734;28;20016;-60
2022/09/14 01:36:50;;;;;;;10.50;4.72;;;23.90;70.00;;;;;;5026178;28;20649;-60
2022/09/14 01:39:16;;;;;;;12.98;4.28;;;23.90;70.00;;;;;;5026793;28;20028;-60
2022/09/14 01:41:42;;;;;;;13.20;5.00;;;23.90;70.00;;;;;;5025286;28;20017;-60
2022/09/14 01:44:17;;;;;;;12.23;4.60;;;23.90;70.10;;;;;;5007542;28;20033;-60
2022/09/14 01:46:44;;;;;;;;;;;23.90;70.10;;;;;;5011113;28;20029;-60
2022/09/14 01:49:15;;;;;;;14.43;4.85;;;23.90;70.20;;;;;;5023463;28;19999;-60
2022/09/14 01:51:47;;;;;;;11.20;4.90;;;23.90;70.20;;;;;;5038907;28;20480;-60
2022/09/14 01:54:19;;;;;;;12.40;4.88;;;23.90;70.20;;;;;;5022020;28;20095;-60
2022/09/14 01:56:53;;;;;;;11.52;4.88;;;23.90;70.20;;;;;;5041950;28;20049;-60
2022/09/14 01:59:22;;;;;;;13.57;4.70;;;23.90;70.20;;;;;;5027709;28;20021;-60
2022/09/14 02:02:10;;;;;;;12.73;4.90;;;23.90;70.40;;;;;;5025000;28;20022;-60
2022/09/14 02:05:09;;;;;;;10.70;4.75;;;23.90;70.30;;;;;;5023254;28;20028;-60
2022/09/14 02:07:35;;;;;;;11.05;4.38;;;23.90;70.40;;;;;;5026722;28;20021;-60
2022/09/14 02:10:02;;;;;;;12.88;5.00;;;23.90;70.40;;;;;;5024822;28;20060;-60
2022/09/14 02:12:29;;;;;;;13.55;4.85;;;23.90;70.30;;;;;;5025055;28;20076;-60
2022/09/14 02:14:56;;;;;;;12.73;5.10;;;23.90;70.40;;;;;;5025417;28;20061;-60
2022/09/14 02:17:22;;;;;;;10.18;4.70;;;23.90;70.30;;;;;;5023831;28;20466;-60
2022/09/14 02:19:52;;;;;;;10.13;4.75;;;23.90;70.40;;;;;;5025258;28;20066;-60
2022/09/14 02:22:17;;;;;;;11.05;4.70;;;23.90;70.40;;;;;;5044184;28;20021;-60
2022/09/14 02:24:46;;;;;;;12.57;4.88;;;23.90;70.40;;;;;;5026994;28;20040;-60
2022/09/14 02:27:12;;;;;;;10.75;4.95;;;23.90;70.50;;;;;;5040201;28;20048;-61
2022/09/14 02:29:37;;;;;;;11.52;5.28;;;23.90;70.50;;;;;;5042106;28;20430;-60
2022/09/14 02:32:27;;;;;;;13.73;5.00;;;23.90;70.50;;;;;;5040421;28;20057;-60
2022/09/14 02:35:01;;;;;;;11.68;5.35;;;23.80;70.50;;;;;;5037501;28;20543;-60
2022/09/14 02:37:55;;;;;;;11.00;5.00;;;23.80;70.50;;;;;;5039371;28;20080;-60
2022/09/14 02:40:37;;;;;;;11.50;4.68;;;23.90;70.50;;;;;;5040545;28;20041;-60
2022/09/14 02:43:15;;;;;;;11.52;5.00;;;23.80;70.50;;;;;;5038394;28;20466;-60
2022/09/14 02:45:50;;;;;;;11.45;4.90;;;23.80;70.50;;;;;;5027667;28;20784;-60
2022/09/14 02:48:58;;;;;;;13.73;4.97;;;23.80;70.50;;;;;;5041242;28;20029;-60
2022/09/14 02:51:35;;;;;;;10.90;4.72;;;23.80;70.50;;;;;;5002379;28;20056;-60
2022/09/14 02:54:11;;;;;;;12.80;5.38;;;23.80;70.50;;;;;;4983979;28;20085;-60
2022/09/14 02:56:37;;;;;;;11.40;4.80;;;23.80;70.50;;;;;;4974220;28;20057;-60
2022/09/14 02:59:02;;;;;;;11.38;5.00;;;23.80;70.50;;;;;;5006133;28;20468;-60
2022/09/14 03:01:28;;;;;;;12.35;4.55;;;23.80;70.50;;;;;;5004736;28;20148;-60
2022/09/14 03:03:54;;;;;;;11.75;5.05;;;23.80;70.50;;;;;;4976466;28;20457;-60
2022/09/14 03:06:19;;;;;;;12.55;5.05;;;23.80;70.50;;;;;;5005414;28;20602;-60
2022/09/14 03:08:45;;;;;;;12.77;5.05;;;23.80;70.50;;;;;;5007146;28;20038;-60
2022/09/14 03:11:11;;;;;;;11.00;4.93;;;23.80;70.50;;;;;;5005609;28;20117;-60
2022/09/14 03:13:36;;;;;;;11.18;4.80;;;23.80;70.50;;;;;;5004396;28;20112;-60
2022/09/14 03:16:12;;;;;;;12.07;5.00;;;23.80;70.50;;;;;;5002865;28;20049;-60
2022/09/14 03:18:38;;;;;;;10.30;4.80;;;23.80;70.50;;;;;;5006267;28;20030;-60
2022/09/14 03:21:09;;;;;;;9.98;4.85;;;23.80;70.50;;;;;;5005707;28;20128;-60
2022/09/14 03:23:42;;;;;;;10.75;4.82;;;23.80;70.50;;;;;;5004757;28;20593;-60
2022/09/14 03:26:13;;;;;;;12.45;5.20;;;23.80;70.50;;;;;;5010150;28;20109;-60
2022/09/14 03:28:39;;;;;;;11.57;5.32;;;23.80;70.50;;;;;;5046360;28;20049;-60
2022/09/14 03:31:05;;;;;;;9.20;4.95;;;23.80;70.50;;;;;;5044458;28;20107;-60
2022/09/14 03:33:31;;;;;;;9.88;4.85;;;23.80;70.50;;;;;;5042331;28;20028;-60
2022/09/14 03:35:57;;;;;;;10.82;4.70;;;23.80;70.50;;;;;;5044882;28;20036;-60
2022/09/14 03:38:23;;;;;;;10.55;4.85;;;23.80;70.50;;;;;;5045388;28;20033;-60
2022/09/14 03:40:49;;;;;;;12.00;5.00;;;23.80;70.50;;;;;;5041029;28;20036;-60
2022/09/14 03:43:14;;;;;;;11.40;4.93;;;23.80;70.50;;;;;;5043810;28;20034;-60
2022/09/14 03:45:40;;;;;;;11.73;4.95;;;23.80;70.50;;;;;;5044075;28;20107;-60
2022/09/14 03:48:06;;;;;;;10.25;4.70;;;23.80;70.50;;;;;;5045855;28;20104;-60
2022/09/14 03:50:32;;;;;;;11.68;4.90;;;23.70;70.40;;;;;;5044237;28;20028;-60
2022/09/14 03:52:58;;;;;;;10.00;4.90;;;23.70;70.40;;;;;;5045054;28;20021;-60
2022/09/14 03:55:24;;;;;;;9.32;4.72;;;23.70;70.40;;;;;;5044015;28;20041;-60
2022/09/14 03:57:53;;;;;;;9.40;4.90;;;23.70;70.50;;;;;;5045101;28;20021;-60
2022/09/14 04:00:18;;;;;;;9.88;4.60;;;23.70;70.40;;;;;;5042270;28;20013;-61
2022/09/14 04:02:45;;;;;;;9.27;4.95;;;23.80;70.50;;;;;;5045658;28;20045;-60
2022/09/14 04:05:10;;;;;;;10.75;5.07;;;23.70;70.40;;;;;;5045064;28;20055;-60
2022/09/14 04:07:36;;;;;;;9.75;4.80;;;23.70;70.40;;;;;;5047059;28;20025;-60
2022/09/14 04:10:04;;;;;;;10.52;4.85;;;23.70;70.40;;;;;;5044733;28;20139;-60
2022/09/14 04:12:34;;;;;;;9.43;4.82;;;23.70;70.40;;;;;;5044582;28;20025;-60
2022/09/14 04:15:00;;;;;;;10.15;4.80;;;23.70;70.40;;;;;;5044568;28;20059;-60
2022/09/14 04:17:25;;;;;;;10.38;5.00;;;23.70;70.50;;;;;;5040995;28;20479;-59
2022/09/14 04:19:51;;;;;;;10.32;4.80;;;23.70;70.50;;;;;;5010820;28;20555;-60
2022/09/14 04:22:16;;;;;;;10.77;5.40;;;23.70;70.40;;;;;;5042935;28;20059;-60
2022/09/14 04:24:42;;;;;;;9.52;4.60;;;23.70;70.40;;;;;;5042887;28;20053;-60
2022/09/14 04:27:08;;;;;;;11.25;4.90;;;23.70;70.40;;;;;;5044397;28;20036;-59
2022/09/14 04:29:33;;;;;;;9.60;4.57;;;23.70;70.40;;;;;;5043253;28;20033;-60
2022/09/14 04:31:59;;;;;;;9.60;4.43;;;23.70;70.40;;;;;;5043135;28;20064;-60
2022/09/14 04:34:25;;;;;;;11.13;4.70;;;23.70;70.50;;;;;;5046702;28;20492;-60
2022/09/14 04:36:51;;;;;;;9.07;4.50;;;23.70;70.40;;;;;;5051761;28;20040;-60
2022/09/14 04:39:16;;;;;;;10.90;4.68;;;23.70;70.40;;;;;;5030359;28;20430;-60
2022/09/14 04:41:42;;;;;;;9.18;4.75;;;23.70;70.40;;;;;;5044136;28;20052;-60
2022/09/14 04:44:08;;;;;;;9.48;4.55;;;23.70;70.40;;;;;;5043154;28;20036;-60
2022/09/14 04:46:34;;;;;;;10.95;5.00;;;23.70;70.40;;;;;;5042859;28;20100;-60
2022/09/14 04:49:00;;;;;;;8.23;4.53;;;23.70;70.40;;;;;;5044194;28;20041;-60
2022/09/14 04:51:27;;;;;;;8.57;4.82;;;23.70;70.40;;;;;;5045773;28;20025;-60
2022/09/14 04:53:55;;;;;;;8.52;4.63;;;23.70;70.40;;;;;;5042531;28;20022;-60
2022/09/14 04:56:21;;;;;;;10.27;4.90;;;23.70;70.40;;;;;;5042555;28;20037;-60
2022/09/14 04:58:48;;;;;;;8.75;4.57;;;23.70;70.40;;;;;;5042682;28;20057;-61
2022/09/14 05:01:16;;;;;;;8.55;4.78;;;23.70;70.40;;;;;;5041204;28;20036;-60
2022/09/14 05:03:41;;;;;;;10.50;5.28;;;23.70;70.40;;;;;;5040703;28;20021;-60
2022/09/14 05:06:12;;;;;;;9.82;5.15;;;23.70;70.50;;;;;;5041016;28;20043;-60
2022/09/14 05:08:38;;;;;;;8.57;4.38;;;23.70;70.50;;;;;;5043629;28;20056;-60
2022/09/14 05:11:07;;;;;;;10.05;4.60;;;23.60;70.40;;;;;;5043517;28;20427;-60
2022/09/14 05:13:33;;;;;;;10.02;5.07;;;23.70;70.40;;;;;;5041073;28;20037;-60
2022/09/14 05:16:09;;;;;;;8.20;4.63;;;23.70;70.40;;;;;;5041920;28;20032;-60
2022/09/14 05:18:35;;;;;;;9.38;4.90;;;23.70;70.50;;;;;;5041207;28;20028;-60
2022/09/14 05:21:05;;;;;;;9.30;4.75;;;23.70;70.50;;;;;;5041858;28;20037;-59
2022/09/14 05:23:31;;;;;;;8.20;4.63;;;23.70;70.70;;;;;;5040396;28;20017;-59
2022/09/14 05:25:57;;;;;;;8.50;4.85;;;23.70;70.70;;;;;;5041515;28;20029;-59
2022/09/14 05:28:24;;;;;;;10.13;4.65;;;23.70;70.80;;;;;;5044230;28;20540;-59
2022/09/14 05:30:50;;;;;;;9.18;4.60;;;23.70;71.00;;;;;;5040738;28;20064;-59
2022/09/14 05:33:15;;;;;;;10.63;4.90;;;23.70;71.10;;;;;;5039865;28;20045;-59
2022/09/14 05:35:41;;;;;;;9.30;5.00;;;23.70;71.20;;;;;;5043833;28;20079;-59
2022/09/14 05:38:06;;;;;;;10.60;4.55;;;23.70;71.20;;;;;;5041124;28;20052;-58
2022/09/14 05:40:32;;;;;;;10.13;4.85;;;23.70;71.30;;;;;;5043541;28;20551;-58
2022/09/14 05:42:58;;;;;;;10.40;4.75;;;23.70;71.20;;;;;;5041236;28;20676;-59
2022/09/14 05:45:23;;;;;;;8.93;4.80;;;23.70;71.10;;;;;;5041591;28;20374;-58
2022/09/14 05:47:49;;;;;;;9.02;4.50;;;23.70;71.40;;;;;;5040986;28;20440;-59
2022/09/14 05:50:15;;;;;;;11.45;4.72;;;23.70;71.40;;;;;;5041649;28;20064;-59
2022/09/14 05:52:40;;;;;;;9.85;4.97;;;23.70;71.40;;;;;;5043078;28;20059;-59
2022/09/14 05:55:06;;;;;;;10.68;4.75;;;23.70;71.40;;;;;;5041369;28;20017;-59
2022/09/14 05:57:32;;;;;;;10.23;4.82;;;23.70;71.30;;;;;;5040374;28;20505;-59
2022/09/14 05:59:58;;;;;;;9.40;4.50;;;23.70;71.30;;;;;;5042462;28;20108;-59
2022/09/14 06:02:24;;;;;;;9.07;4.28;;;23.70;71.40;;;;;;5041510;28;20166;-59
2022/09/14 06:04:49;;;;;;;9.65;4.50;;;23.70;71.30;;;;;;5042764;28;20091;-59
2022/09/14 06:07:15;;;;;;;9.98;4.50;;;23.60;71.20;;;;;;5041377;28;20032;-58
2022/09/14 06:09:41;;;;;;;8.93;3.97;;;23.70;71.30;;;;;;5041620;28;20046;-58
2022/09/14 06:12:07;;;;;;;11.00;4.40;;;23.60;71.30;;;;;;5038922;28;20387;-59
2022/09/14 06:14:33;;;;;;;8.98;4.60;;;23.60;71.30;;;;;;5039270;28;20025;-59
2022/09/14 06:16:59;;;;;;;10.57;4.38;;;23.70;71.30;;;;;;5043931;28;20063;-59
2022/09/14 06:19:24;;;;;;;8.80;4.50;;;23.60;71.20;;;;;;5042317;28;20045;-59
2022/09/14 06:21:50;;;;;;;8.65;4.30;;;23.60;71.30;;;;;;5041211;28;20068;-59
2022/09/14 06:24:16;;;;;;;9.13;4.47;;;23.60;71.30;;;;;;5042575;28;20032;-58
2022/09/14 06:26:41;;;;;;;8.18;4.25;;;23.60;71.30;;;;;;5041181;28;20036;-59
2022/09/14 06:29:07;;;;;;;8.55;4.60;;;23.60;71.20;;;;;;5042262;28;20059;-58
2022/09/14 06:31:33;;;;;;;11.82;4.45;;;23.60;71.30;;;;;;5043406;28;20059;-59
2022/09/14 06:33:58;;;;;;;8.43;4.30;;;23.60;71.30;;;;;;5045061;28;20444;-59
2022/09/14 06:36:25;;;;;;;8.43;4.22;;;23.60;71.30;;;;;;5046804;28;20037;-59
2022/09/14 06:38:51;;;;;;;8.63;4.20;;;23.60;71.40;;;;;;5043706;28;20557;-59
2022/09/14 06:41:19;;;;;;;7.82;3.75;;;23.60;71.40;;;;;;5046210;28;20105;-59
2022/09/14 06:43:45;;;;;;;8.02;4.30;;;23.60;71.40;;;;;;5048331;28;20033;-59
2022/09/14 06:46:22;;;;;;;9.63;3.90;;;23.60;71.40;;;;;;5046317;28;20045;-58
2022/09/14 06:49:02;;;;;;;11.25;4.50;;;23.60;71.40;;;;;;5047009;28;20070;-59
2022/09/14 06:51:33;;;;;;;8.57;4.05;;;23.60;71.40;;;;;;5043386;28;20041;-59
2022/09/14 06:53:58;;;;;;;7.70;4.07;;;23.60;71.40;;;;;;5044250;28;20025;-58
2022/09/14 06:56:25;;;;;;;9.30;4.60;;;23.60;71.40;;;;;;5047531;28;20096;-59
2022/09/14 06:58:52;;;;;;;9.27;4.25;;;23.60;71.50;;;;;;5043705;28;20505;-59
2022/09/14 07:01:20;;;;;;;8.00;3.80;;;23.60;71.50;;;;;;5046044;28;20128;-59
2022/09/14 07:03:46;;;;;;;9.23;4.30;;;23.60;71.50;;;;;;5045681;28;20069;-58
2022/09/14 07:06:14;;;;;;;7.55;3.90;;;23.60;71.40;;;;;;5043656;28;20025;-59
2022/09/14 07:08:40;;;;;;;8.38;4.10;;;23.60;71.40;;;;;;5046950;28;20029;-59
2022/09/14 07:11:07;;;;;;;9.30;4.53;;;23.60;71.40;;;;;;5045392;28;20028;-58
2022/09/14 07:13:32;;;;;;;7.95;3.95;;;23.60;71.50;;;;;;5046204;28;20017;-58
2022/09/14 07:15:58;;;;;;;10.07;3.95;;;23.60;71.40;;;;;;5044107;28;20045;-58
2022/09/14 07:18:27;;;;;;;9.13;4.47;;;23.60;71.50;;;;;;5043585;28;20100;-59
2022/09/14 07:20:54;;;;;;;8.18;3.70;;;23.50;71.40;;;;;;5045720;28;20453;-59
2022/09/14 07:23:20;;;;;;;7.55;4.15;;;23.60;71.50;;;;;;5044604;28;20070;-58
2022/09/14 07:25:45;;;;;;;10.63;4.30;;;23.60;71.40;;;;;;5046941;28;20092;-58
2022/09/14 07:28:11;;;;;;;8.10;4.15;;;23.60;71.50;;;;;;5044276;28;20052;-59
2022/09/14 07:30:37;;;;;;;7.90;4.10;;;23.60;71.40;;;;;;5044187;28;20033;-59
2022/09/14 07:33:06;;;;;;;6.40;3.55;;;23.60;71.40;;;;;;5042690;28;20021;-59
2022/09/14 07:35:32;;;;;;;7.75;4.15;;;23.60;71.50;;;;;;5043399;28;20576;-58
2022/09/14 07:37:57;;;;;;;9.90;4.20;;;23.50;71.40;;;;;;5043041;28;20112;-59
2022/09/14 07:40:23;;;;;;;7.40;3.88;;;23.60;71.40;;;;;;5043572;28;20025;-58
2022/09/14 07:42:52;;;;;;;8.68;4.50;;;23.60;71.40;;;;;;5042855;28;20037;-58
2022/09/14 07:45:18;;;;;;;8.13;3.97;;;23.60;71.50;;;;;;5041396;28;20033;-58
2022/09/14 07:47:44;;;;;;;9.40;4.10;;;23.60;71.50;;;;;;5043769;28;20058;-58
2022/09/14 07:50:09;;;;;;;7.68;3.70;;;23.50;71.40;;;;;;5044569;28;20029;-59
2022/09/14 07:52:35;;;;;;;8.68;3.83;;;23.60;71.50;;;;;;5044731;28;20025;-58
2022/09/14 07:55:01;;;;;;;7.10;3.80;;;23.50;71.50;;;;;;5042964;28;20033;-59
2022/09/14 07:57:27;;;;;;;8.43;4.05;;;23.50;71.50;;;;;;5044017;28;20412;-58
2022/09/14 07:59:52;;;;;;;8.85;3.90;;;23.50;71.50;;;;;;5046691;28;20060;-58
2022/09/14 08:02:18;;;;;;;7.68;4.13;;;23.50;71.50;;;;;;5042501;28;20111;-58
2022/09/14 08:04:44;;;;;;;7.30;3.80;;;23.50;71.50;;;;;;5043031;28;20132;-58
2022/09/14 08:07:09;;;;;;;6.78;3.80;;;23.50;71.60;;;;;;5042949;28;20021;-58
2022/09/14 08:09:37;;;;;;;7.22;4.15;;;23.50;71.50;;;;;;5043380;28;20021;-59
2022/09/14 08:12:04;;;;;;;8.07;3.88;;;23.60;71.60;;;;;;5044316;28;20032;-58
2022/09/14 08:14:30;;;;;;;7.05;3.72;;;23.50;71.60;;;;;;5045968;28;20029;-58
2022/09/14 08:16:56;;;;;;;7.63;3.80;;;23.50;71.50;;;;;;5040555;28;20083;-58
2022/09/14 08:19:21;;;;;;;7.45;3.78;;;23.50;71.60;;;;;;5044932;28;20044;-58
2022/09/14 08:21:47;;;;;;;7.55;3.78;;;23.50;71.50;;;;;;5046574;28;20026;-58
2022/09/14 08:24:15;;;;;;;9.10;4.00;;;23.50;71.50;;;;;;5045034;28;20029;-58
2022/09/14 08:26:40;;;;;;;8.18;3.95;;;23.50;71.60;;;;;;5045302;28;20021;-58
2022/09/14 08:29:06;;;;;;;7.68;3.60;;;23.50;71.60;;;;;;5043597;28;20040;-58
2022/09/14 08:31:35;;;;;;;6.47;3.80;;;23.50;71.60;;;;;;5043591;28;20520;-58
2022/09/14 08:34:02;;;;;;;9.52;4.22;;;23.50;71.60;;;;;;5041807;28;20532;-58
2022/09/14 08:36:30;;;;;;;9.13;3.90;;;23.50;71.60;;;;;;5042797;28;20409;-58
2022/09/14 08:38:56;;;;;;;7.45;3.70;;;23.50;71.60;;;;;;5043314;28;20032;-58
2022/09/14 08:41:29;;;;;;;8.50;3.83;;;23.50;71.60;;;;;;5044430;28;20481;-59
2022/09/14 08:44:09;;;;;;;6.95;3.90;;;23.50;71.50;;;;;;5041711;28;20021;-58
2022/09/14 08:46:39;;;;;;;7.25;4.07;;;23.50;71.60;;;;;;5024919;28;20030;-58
2022/09/14 08:49:10;;;;;;;7.47;3.70;;;23.50;71.60;;;;;;5024053;28;20470;-58
2022/09/14 08:51:36;;;;;;;7.90;4.32;;;23.50;71.50;;;;;;5024788;28;20029;-58
2022/09/14 08:54:02;;;;;;;7.78;4.20;;;23.50;71.50;;;;;;5025322;28;20399;-58
2022/09/14 08:56:31;;;;;;;8.68;3.92;;;23.50;71.60;;;;;;5024892;28;20406;-58
2022/09/14 08:59:23;;;;;;;7.47;4.03;;;23.50;71.50;;;;;;5027083;28;20037;-58
2022/09/14 09:02:00;;;;;;;7.05;3.70;;;23.50;71.60;;;;;;5028145;28;20036;-58
2022/09/14 09:04:51;;;;;;;6.80;3.97;;;23.50;71.50;;;;;;5024433;28;20448;-59
2022/09/14 09:07:49;;;;;;;9.02;4.30;;;23.50;71.60;;;;;;5028040;28;20047;-58
2022/09/14 09:10:15;;;;;;;6.97;3.90;;;23.50;71.60;;;;;;4982241;28;20042;-58
2022/09/14 09:12:47;;;;;;;7.65;4.20;;;23.50;71.70;;;;;;4968083;28;20679;-58
2022/09/14 09:15:35;;;;;;;7.13;3.97;;;23.50;71.60;;;;;;4979423;28;20041;-58
2022/09/14 09:18:17;;;;;;;9.57;4.20;;;23.50;71.60;;;;;;4982960;28;20058;-58
2022/09/14 09:20:46;;;;;;;8.45;4.32;;;23.50;71.60;;;;;;4985138;28;20581;-58
2022/09/14 09:23:15;;;;;;;7.50;3.80;;;23.50;71.50;;;;;;4982388;28;20101;-58
2022/09/14 09:26:04;;;;;;;8.75;4.10;;;23.50;71.60;;;;;;4983783;28;20029;-58
2022/09/14 09:28:29;;;;;;;7.75;4.10;;;23.50;71.50;;;;;;4984512;28;20035;-58
2022/09/14 09:30:57;;;;;;;7.50;3.92;;;23.40;71.50;;;;;;4966811;28;20101;-58
2022/09/14 09:33:24;;;;;;;7.55;4.00;;;23.50;71.60;;;;;;4967384;28;20092;-58
2022/09/14 09:35:51;;;;;;;8.70;4.38;;;23.50;71.50;;;;;;4983538;28;20038;-58
2022/09/14 09:38:24;;;;;;;8.05;4.25;;;23.50;71.60;;;;;;4983441;28;20098;-58
2022/09/14 09:40:51;;;;;;;8.52;4.22;;;23.50;71.60;;;;;;4984456;28;20042;-58
2022/09/14 09:43:18;;;;;;;7.43;4.38;;;23.50;71.50;;;;;;4984419;28;20033;-58
2022/09/14 09:45:58;;;;;;;7.40;3.95;;;23.50;71.60;;;;;;4983626;28;20070;-58
2022/09/14 09:48:37;;;;;;;8.18;3.90;;;23.50;71.40;;;;;;5040825;28;20458;-58
2022/09/14 09:51:13;;;;;;;7.63;4.03;;;23.50;71.40;;;;;;5027701;28;20409;-58
2022/09/14 09:53:50;;;;;;;8.77;3.95;;;23.50;71.40;;;;;;5042319;28;20590;-58
2022/09/14 09:56:26;;;;;;;8.75;4.18;;;23.50;71.40;;;;;;5024169;28;20056;-59
2022/09/14 09:58:52;;;;;;;9.70;4.72;;;23.50;71.50;;;;;;5025751;28;20029;-59
2022/09/14 10:01:29;;;;;;;10.48;4.20;;;23.50;71.60;;;;;;5041428;28;20029;-58
2022/09/14 10:04:14;;;;;;;7.80;4.00;;;23.60;71.60;;;;;;5040254;28;20021;-58
2022/09/14 10:06:44;;;;;;;9.20;4.25;;;23.60;71.50;;;;;;5041588;28;20044;-59
2022/09/14 10:09:17;;;;;;;10.73;4.50;;;23.60;71.40;;;;;;5025619;28;20029;-59
2022/09/14 10:11:44;;;;;;;9.75;4.10;;;23.60;71.50;;;;;;5023940;28;20029;-58
2022/09/14 10:14:27;;;;;;;9.70;4.40;;;23.60;71.50;;;;;;5009555;28;20174;-59
2022/09/14 10:16:53;;;;;;;11.32;4.43;;;23.60;71.40;;;;;;5022169;28;20033;-58
2022/09/14 10:19:22;;;;;;;8.40;3.92;;;23.60;71.50;;;;;;5025052;28;20038;-58
2022/09/14 10:22:19;;;;;;;10.93;4.22;;;23.60;71.50;;;;;;5045763;28;20025;-59
2022/09/14 10:24:58;;;;;;;10.75;4.50;;;23.70;71.40;;;;;;5045284;28;20078;-59
2022/09/14 10:27:31;;;;;;;10.70;4.43;;;23.70;71.30;;;;;;5042229;28;20037;-59
2022/09/14 10:29:57;;;;;;;12.30;4.97;;;23.70;71.30;;;;;;5041307;28;20158;-60
2022/09/14 10:32:24;;;;;;;12.85;4.88;;;23.70;71.60;;;;;;5022716;28;20489;-58
2022/09/14 10:34:53;;;;;;;12.13;5.35;;;23.70;71.30;;;;;;5021499;28;20030;-59
2022/09/14 10:37:35;;;;;;;14.27;4.95;;;23.70;71.30;;;;;;5024407;28;20064;-59
2022/09/14 10:40:15;;;;;;;14.90;5.00;;;23.70;71.30;;;;;;5023972;28;20025;-59
2022/09/14 10:42:43;;;;;;;11.43;4.82;;;23.70;71.10;;;;;;5008260;28;20033;-59
2022/09/14 10:45:30;;;;;;;11.93;4.80;;;23.80;71.20;;;;;;5024139;28;20108;-59
2022/09/14 10:47:55;;;;;;;13.23;5.07;;;23.80;71.20;;;;;;5041649;28;20066;-60
2022/09/14 10:50:31;;;;;;;16.70;5.15;;;23.80;71.20;;;;;;5042443;28;20413;-59
2022/09/14 10:53:02;;;;;;;14.88;5.72;;;23.80;71.10;;;;;;5041377;28;20030;-60
2022/09/14 10:55:40;;;;;;;14.38;5.40;;;23.80;71.10;;;;;;5040727;28;20025;-60
2022/09/14 10:58:33;;;;;;;15.43;5.35;;;23.80;71.00;;;;;;5040808;28;20060;-60
2022/09/14 11:01:23;;;;;;;16.75;4.95;;;23.80;71.00;;;;;;5041400;28;20036;-60
2022/09/14 11:04:07;;;;;;;14.73;4.88;;;23.80;70.90;;;;;;5025343;28;20039;-60
2022/09/14 11:06:39;;;;;;;14.25;5.13;;;23.80;70.90;;;;;;5024344;28;20120;-60
2022/09/14 11:09:29;;;;;;;18.45;5.18;;;23.80;70.80;;;;;;5040105;28;20037;-61
2022/09/14 11:12:15;;;;;;;15.27;5.03;;;23.80;70.70;;;;;;5022946;28;20028;-60
2022/09/14 11:14:54;;;;;;;21.80;5.97;;;23.80;70.60;;;;;;5024334;28;20043;-60
2022/09/14 11:17:57;;;;;;;18.33;5.55;;;23.90;70.60;;;;;;5026105;28;20112;-60
2022/09/14 11:20:25;;;;;;;24.50;5.93;;;23.90;70.70;;;;;;5044280;28;20049;-60
2022/09/14 11:23:28;;;;;;;22.55;5.72;;;23.80;70.60;;;;;;5044118;28;20037;-61
2022/09/14 11:26:13;;;;;;;18.73;5.47;;;23.80;70.50;;;;;;5044465;28;20028;-60
2022/09/14 11:28:40;;;;;;;19.02;5.65;;;23.80;70.40;;;;;;5046346;28;20031;-60
2022/09/14 11:31:20;;;;;;;26.35;5.93;;;23.80;70.40;;;;;;5046832;28;20550;-60
2022/09/14 11:33:59;;;;;;;23.20;5.85;;;23.80;70.10;;;;;;5026988;28;20052;-59
2022/09/14 11:36:30;;;;;;;29.85;6.57;;;23.80;70.40;;;;;;5043333;28;20041;-59
2022/09/14 11:39:04;;;;;;;23.67;5.93;;;23.80;70.40;;;;;;5029464;28;20781;-59
2022/09/14 11:41:32;;;;;;;24.63;5.60;;;23.80;70.40;;;;;;5029811;28;20025;-59
2022/09/14 11:44:31;;;;;;;29.40;6.78;;;23.80;70.20;;;;;;5034071;28;20025;-59
2022/09/14 11:47:12;;;;;;;28.55;6.68;;;23.80;70.20;;;;;;5032764;28;20105;-59
2022/09/14 11:49:57;;;;;;;36.88;7.82;;;23.80;70.00;;;;;;5029015;28;20094;-59
2022/09/14 11:52:24;;;;;;;32.08;6.97;;;23.80;69.90;;;;;;5046923;28;20029;-59
2022/09/14 11:54:50;;;;;;;38.80;8.13;;;23.80;69.90;;;;;;5048658;28;20560;-59
2022/09/14 11:57:34;;;;;;;37.60;7.15;;;23.80;69.90;;;;;;5046708;28;20069;-59
2022/09/14 12:00:22;;;;;;;38.53;7.72;;;23.80;70.90;;;;;;5047884;28;20444;-59
2022/09/14 12:03:13;;;;;;;35.65;7.40;;;23.80;69.90;;;;;;5045956;28;20079;-59
2022/09/14 12:05:39;;;;;;;41.10;8.88;;;23.80;69.90;;;;;;5044317;28;20056;-59
2022/09/14 12:08:27;;;;;;;40.90;7.22;;;23.80;69.80;;;;;;5027631;28;20028;-59
2022/09/14 12:11:08;;;;;;;42.67;9.23;;;23.80;70.20;;;;;;5045809;28;20026;-59
2022/09/14 12:13:34;;;;;;;39.58;7.75;;;23.70;70.00;;;;;;5043499;28;20109;-59
2022/09/14 12:16:04;;;;;;;36.20;8.60;;;23.70;69.90;;;;;;5027687;28;20041;-59
2022/09/14 12:18:31;;;;;;;35.33;7.35;;;23.70;69.90;;;;;;5023320;28;20500;-59
2022/09/14 12:20:59;;;;;;;40.63;7.50;;;23.70;70.00;;;;;;5029049;28;20033;-59
2022/09/14 12:23:37;;;;;;;36.78;8.68;;;23.70;70.00;;;;;;5044269;28;20048;-59
2022/09/14 12:26:09;;;;;;;40.10;8.07;;;23.70;69.90;;;;;;5044866;28;20618;-58
2022/09/14 12:28:34;;;;;;;35.67;7.85;;;23.70;70.00;;;;;;5040924;28;20041;-59
2022/09/14 12:31:03;;;;;;;31.90;7.30;;;23.70;70.00;;;;;;5041439;28;20401;-59
2022/09/14 12:33:32;;;;;;;35.03;7.75;;;23.70;70.00;;;;;;5045712;28;20044;-59
2022/09/14 12:35:59;;;;;;;34.10;7.65;;;23.70;70.00;;;;;;5043117;28;20509;-59
2022/09/14 12:38:30;;;;;;;35.78;8.23;;;23.70;70.00;;;;;;5042195;28;20083;-59
2022/09/14 12:41:00;;;;;;;30.60;7.55;;;23.70;70.00;;;;;;5040684;28;20107;-58
2022/09/14 12:43:32;;;;;;;32.97;7.32;;;23.70;70.10;;;;;;5026886;28;20528;-59
2022/09/14 12:46:19;;;;;;;31.77;7.82;;;23.70;70.00;;;;;;5044294;28;20397;-59
2022/09/14 12:48:49;;;;;;;32.42;7.57;;;23.70;70.10;;;;;;5046605;28;20142;-59
2022/09/14 12:54:08;;;;;;;28.17;6.53;;;23.70;70.10;;;;;;5041188;28;20021;-59
2022/09/14 12:56:47;;;;;;;28.92;7.00;;;23.70;70.10;;;;;;5041653;28;20391;-59
2022/09/14 12:59:35;;;;;;;29.80;7.78;;;23.70;70.10;;;;;;5027948;28;20037;-58
2022/09/14 13:02:24;;;;;;;30.42;6.45;;;23.70;70.20;;;;;;5042342;28;20029;-60
2022/09/14 13:04:52;;;;;;;27.10;6.57;;;23.70;70.10;;;;;;5027784;28;20029;-58